Time;durP1;ratioP1;P1;durP2;ratioP2;P2;SDS_P1;SDS_P2;PMS_P1;PMS_P2;Temp;Humidity;BMP_temperature;BMP_pressure;BME280_temperature;BME280_humidity;BME280_pressure;Samples;Min_cycle;Max_cycle;Signal;HPM_P1;HPM_P2
2023/06/19 00:00:44;;;;;;;11.02;5.65;;;;;;;20.62;53.28;96815.66;4991338;28;20038;-62
2023/06/19 00:03:10;;;;;;;7.15;5.25;;;;;;;20.53;53.46;96812.97;4988798;28;20413;-62
2023/06/19 00:05:37;;;;;;;7.75;5.63;;;;;;;20.51;52.98;96820.72;4988850;28;20031;-61
2023/06/19 00:08:05;;;;;;;7.90;5.70;;;;;;;20.62;52.94;96815.66;4988866;28;20054;-60
2023/06/19 00:10:32;;;;;;;8.68;5.72;;;;;;;20.61;53.52;96805.81;4988191;28;20041;-62
2023/06/19 00:12:58;;;;;;;8.13;5.82;;;;;;;20.46;54.23;96820.91;4985911;28;20421;-61
2023/06/19 00:15:25;;;;;;;7.13;5.43;;;;;;;20.40;54.20;96814.78;4991422;28;20286;-62
2023/06/19 00:17:51;;;;;;;8.07;5.60;;;;;;;20.36;54.33;96817.41;4988678;28;20034;-61
2023/06/19 00:20:18;;;;;;;7.88;5.45;;;;;;;20.31;54.60;96817.56;4987626;28;20541;-61
2023/06/19 00:22:44;;;;;;;8.45;6.20;;;;;;;20.31;55.08;96819.53;4988098;28;20039;-61
2023/06/19 00:25:11;;;;;;;6.75;5.30;;;;;;;20.26;54.68;96821.31;4990897;28;20560;-61
2023/06/19 00:27:38;;;;;;;7.72;6.30;;;;;;;20.22;55.42;96825.06;4986167;28;20038;-62
2023/06/19 00:30:05;;;;;;;7.75;5.70;;;;;;;20.19;55.14;96817.47;4992971;28;20589;-61
2023/06/19 00:32:32;;;;;;;9.68;5.75;;;;;;;20.14;55.75;96823.94;4987723;28;20042;-62
2023/06/19 00:35:00;;;;;;;7.85;5.85;;;;;;;20.13;55.53;96817.63;4998523;28;20034;-61
2023/06/19 00:37:31;;;;;;;7.85;6.00;;;;;;;20.02;56.23;96822.69;4991382;28;20041;-61
2023/06/19 00:39:58;;;;;;;8.32;6.60;;;;;;;20.10;55.93;96826.56;4980157;28;20121;-62
2023/06/19 00:42:26;;;;;;;8.35;6.00;;;;;;;20.08;56.08;96825.28;4998403;28;20132;-62
2023/06/19 00:44:52;;;;;;;8.20;6.85;;;;;;;20.11;56.02;96827.34;4974885;28;20046;-61
2023/06/19 00:47:19;;;;;;;8.13;5.43;;;;;;;20.19;56.17;96834.75;4999476;28;20041;-62
2023/06/19 00:49:45;;;;;;;8.40;5.70;;;;;;;20.35;55.02;96862.50;4979982;28;20066;-61
2023/06/19 00:52:12;;;;;;;7.75;4.93;;;;;;;21.13;52.04;96875.44;4996388;28;20038;-64
2023/06/19 00:54:39;;;;;;;6.63;4.80;;;;;;;21.59;51.38;96889.34;4974558;28;20046;-64
2023/06/19 00:57:06;;;;;;;6.75;5.03;;;;;;;21.85;50.62;96893.84;4992231;28;20046;-64
2023/06/19 00:59:32;;;;;;;7.70;4.18;;;;;;;21.99;50.78;96898.25;4992448;28;20050;-64
2023/06/19 01:02:01;;;;;;;6.22;3.53;;;;;;;22.08;51.25;96901.78;4999555;28;20031;-63
2023/06/19 01:04:28;;;;;;;7.35;3.90;;;;;;;22.08;51.48;96907.28;4995000;28;20049;-63
2023/06/19 01:06:59;;;;;;;6.38;3.35;;;;;;;;;;4993216;28;20038;-64
2023/06/19 01:09:33;;;;;;;6.05;3.33;;;;;;;22.02;51.97;96889.31;4976811;28;20121;-64
2023/06/19 01:12:04;;;;;;;;;;;;;;;21.96;52.25;96897.00;4979558;28;20038;-64
2023/06/19 01:14:37;;;;;;;7.07;2.60;;;;;;;21.93;52.45;96892.97;4994365;28;19968;-64
2023/06/19 01:17:05;;;;;;;7.18;3.25;;;;;;;21.94;52.91;96894.59;4997496;28;20129;-63
2023/06/19 01:19:32;;;;;;;4.65;3.03;;;;;;;21.94;53.15;96893.78;4994586;28;20441;-64
2023/06/19 01:22:02;;;;;;;5.25;3.10;;;;;;;21.90;53.29;96899.19;4978857;28;20034;-63
2023/06/19 01:24:29;;;;;;;7.10;3.85;;;;;;;21.89;54.47;96905.03;4993995;28;20630;-65
2023/06/19 01:26:56;;;;;;;5.47;3.50;;;;;;;21.69;55.51;96905.50;4994991;28;20046;-64
2023/06/19 01:29:22;;;;;;;6.28;3.90;;;;;;;21.64;56.29;96902.13;4973818;28;20044;-64
2023/06/19 01:32:02;;;;;;;4.55;3.20;;;;;;;21.56;57.05;96903.81;4996181;28;20544;-64
2023/06/19 01:34:30;;;;;;;7.93;4.05;;;;;;;21.52;58.07;96913.91;4993473;28;20107;-63
2023/06/19 01:36:57;;;;;;;5.00;3.53;;;;;;;21.47;58.58;96917.63;4994335;28;20303;-64
2023/06/19 01:39:25;;;;;;;5.95;3.60;;;;;;;21.44;58.94;96918.31;4975869;28;20136;-64
2023/06/19 01:41:54;;;;;;;5.13;3.67;;;;;;;21.42;59.01;96913.13;4996601;28;20034;-64
2023/06/19 01:44:21;;;;;;;5.43;3.50;;;;;;;21.41;59.63;96922.53;4993531;28;20080;-63
2023/06/19 01:46:50;;;;;;;5.47;3.58;;;;;;;21.26;60.39;96925.91;4990454;28;20068;-63
2023/06/19 01:49:17;;;;;;;5.38;3.50;;;;;;;21.22;60.33;96928.50;4986478;28;20286;-65
2023/06/19 01:51:45;;;;;;;5.63;3.33;;;;;;;21.09;61.06;96926.78;4970294;28;20042;-64
2023/06/19 01:54:12;;;;;;;4.70;3.40;;;;;;;21.20;61.08;96925.28;4995944;28;20479;-65
2023/06/19 01:56:38;;;;;;;5.15;3.10;;;;;;;21.16;61.34;96911.34;4985727;28;20042;-64
2023/06/19 01:59:05;;;;;;;6.70;3.22;;;;;;;21.24;60.64;96911.63;4975461;28;20046;-63
2023/06/19 02:01:31;;;;;;;5.03;2.70;;;;;;;21.13;61.39;96891.94;4971182;28;20054;-63
2023/06/19 02:04:00;;;;;;;4.68;2.50;;;;;;;21.08;61.66;96892.94;4991386;28;20030;-63
2023/06/19 02:06:30;;;;;;;3.65;2.30;;;;;;;21.11;61.13;96895.03;4988818;28;20038;-63
2023/06/19 02:08:56;;;;;;;4.50;2.40;;;;;;;20.99;61.42;96898.50;4994262;28;20448;-63
2023/06/19 02:11:23;;;;;;;3.45;2.20;;;;;;;21.12;61.08;96890.34;4992016;28;20042;-63
2023/06/19 02:13:49;;;;;;;3.58;2.13;;;;;;;21.09;61.00;96896.50;4990399;28;20046;-63
2023/06/19 02:16:16;;;;;;;4.25;2.60;;;;;;;21.11;60.70;96889.53;4975557;28;20042;-62
2023/06/19 02:18:42;;;;;;;3.78;2.60;;;;;;;21.20;60.66;96888.66;4988506;28;20045;-63
2023/06/19 02:21:09;;;;;;;5.05;2.47;;;;;;;21.11;61.09;96888.75;4989997;28;20035;-62
2023/06/19 02:23:35;;;;;;;4.05;2.42;;;;;;;21.02;61.87;96891.53;4972165;28;20052;-63
2023/06/19 02:26:03;;;;;;;4.18;2.50;;;;;;;20.90;64.01;96892.25;4973480;28;20050;-63
2023/06/19 02:28:29;;;;;;;4.07;2.22;;;;;;;20.78;65.37;96888.22;4990175;28;20042;-62
2023/06/19 02:30:56;;;;;;;4.20;2.30;;;;;;;20.84;66.40;96890.78;4970454;28;20138;-62
2023/06/19 02:33:22;;;;;;;4.30;2.30;;;;;;;20.66;71.08;96899.13;4993859;28;20042;-63
2023/06/19 02:35:49;;;;;;;3.60;2.50;;;;;;;20.69;72.12;96895.72;4991305;28;20054;-63
2023/06/19 02:38:15;;;;;;;4.93;2.45;;;;;;;20.76;71.45;96900.69;4994884;28;20057;-63
2023/06/19 02:40:42;;;;;;;5.93;2.70;;;;;;;20.73;72.53;96901.34;4989632;28;20070;-63
2023/06/19 02:43:09;;;;;;;6.10;2.78;;;;;;;20.73;70.86;96904.94;4972063;28;20065;-63
2023/06/19 02:45:36;;;;;;;4.15;2.72;;;;;;;20.67;71.48;96907.03;4992968;28;20046;-63
2023/06/19 02:48:02;;;;;;;5.97;2.60;;;;;;;20.60;72.72;96909.50;4987938;28;20049;-63
2023/06/19 02:50:31;;;;;;;4.25;2.65;;;;;;;20.54;73.76;96917.13;4971617;28;20453;-63
2023/06/19 02:52:58;;;;;;;4.40;2.55;;;;;;;20.42;74.50;96913.44;4972451;28;20046;-64
2023/06/19 02:55:24;;;;;;;4.40;2.67;;;;;;;20.18;76.42;96912.03;4974186;28;20076;-63
2023/06/19 02:57:51;;;;;;;4.90;2.97;;;;;;;19.78;81.50;96921.28;4969475;28;20085;-63
2023/06/19 03:00:18;;;;;;;4.95;3.13;;;;;;;19.90;79.04;96924.16;4974512;28;20041;-62
2023/06/19 03:02:44;;;;;;;4.32;2.47;;;;;;;19.90;78.20;96924.16;4991203;28;20046;-63
2023/06/19 03:05:14;;;;;;;3.78;2.42;;;;;;;19.66;79.99;96924.66;4991679;28;20039;-63
2023/06/19 03:07:41;;;;;;;5.15;2.53;;;;;;;19.69;80.21;96933.09;4969748;28;20038;-63
2023/06/19 03:10:08;;;;;;;5.10;2.88;;;;;;;19.76;78.07;96932.59;4973767;28;20046;-63
2023/06/19 03:12:35;;;;;;;4.18;2.45;;;;;;;19.83;76.81;96938.41;4971140;28;20038;-63
2023/06/19 03:15:02;;;;;;;4.03;2.20;;;;;;;19.79;76.54;96939.38;4971071;28;20526;-63
2023/06/19 03:17:31;;;;;;;4.03;2.28;;;;;;;19.74;77.09;96941.16;4972399;28;20050;-63
2023/06/19 03:19:57;;;;;;;3.97;2.30;;;;;;;19.82;76.36;96947.78;4972279;28;20046;-63
2023/06/19 03:22:24;;;;;;;4.47;2.42;;;;;;;19.84;75.43;96955.69;4978179;28;20045;-63
2023/06/19 03:24:52;;;;;;;4.35;2.25;;;;;;;19.82;74.73;96953.28;4969346;28;20100;-62
2023/06/19 03:27:20;;;;;;;3.20;1.83;;;;;;;19.76;75.12;96960.06;4974278;28;20041;-63
2023/06/19 03:29:47;;;;;;;4.10;2.40;;;;;;;19.85;74.33;96955.38;4989359;28;20405;-62
2023/06/19 03:32:19;;;;;;;3.83;1.85;;;;;;;19.79;73.80;96961.34;4968425;28;20505;-63
2023/06/19 03:34:48;;;;;;;4.13;2.28;;;;;;;19.84;73.11;96953.78;4973959;28;20399;-63
2023/06/19 03:37:15;;;;;;;3.33;2.03;;;;;;;19.85;73.23;96965.56;4971444;28;20141;-64
2023/06/19 03:39:42;;;;;;;3.63;2.47;;;;;;;19.82;72.85;96969.75;4967379;28;20722;-64
2023/06/19 03:42:10;;;;;;;3.60;2.22;;;;;;;19.97;70.56;96964.94;4973113;28;20036;-63
2023/06/19 03:44:37;;;;;;;3.53;1.92;;;;;;;20.16;69.56;96972.84;4971587;28;20050;-64
2023/06/19 03:47:04;;;;;;;3.20;1.83;;;;;;;20.19;68.68;96974.16;4972874;28;20096;-63
2023/06/19 03:49:30;;;;;;;3.20;1.52;;;;;;;20.24;68.45;96976.72;4974379;28;20053;-63
2023/06/19 03:51:57;;;;;;;3.22;1.63;;;;;;;20.27;67.04;96973.34;4988178;28;20048;-63
2023/06/19 03:54:24;;;;;;;2.95;1.70;;;;;;;20.35;66.92;96969.72;4971259;28;20140;-63
2023/06/19 03:56:52;;;;;;;2.95;1.67;;;;;;;20.42;65.88;96969.25;4973447;28;20042;-64
2023/06/19 03:59:18;;;;;;;3.25;1.88;;;;;;;20.35;66.02;96968.94;4988802;28;20080;-64
2023/06/19 04:01:45;;;;;;;4.55;2.03;;;;;;;20.34;65.92;96976.38;4974052;28;20049;-64
2023/06/19 04:04:11;;;;;;;3.03;1.60;;;;;;;20.28;66.42;96977.69;4988312;28;20046;-63
2023/06/19 04:06:38;;;;;;;3.72;1.88;;;;;;;20.34;66.31;96984.63;4988694;28;20129;-64
2023/06/19 04:09:05;;;;;;;3.80;1.90;;;;;;;20.14;68.97;96981.44;4969116;28;20044;-64
2023/06/19 04:11:32;;;;;;;4.07;2.00;;;;;;;20.11;68.05;96990.31;4988324;28;20600;-63
2023/06/19 04:14:00;;;;;;;8.05;1.70;;;;;;;20.12;69.28;96989.16;4971507;28;20050;-64
2023/06/19 04:16:28;;;;;;;4.93;1.88;;;;;;;20.15;68.71;96995.97;4974870;28;20042;-64
2023/06/19 04:18:55;;;;;;;4.20;1.83;;;;;;;20.19;68.70;96988.69;4968980;28;20053;-64
2023/06/19 04:21:22;;;;;;;4.30;2.00;;;;;;;20.31;66.97;96985.25;4972999;28;20038;-64
2023/06/19 04:23:49;;;;;;;4.53;2.20;;;;;;;20.18;67.85;96986.25;4990315;28;20065;-63
2023/06/19 04:26:15;;;;;;;4.20;2.40;;;;;;;20.31;66.92;96979.75;4992972;28;20052;-63
2023/06/19 04:28:42;;;;;;;4.00;1.90;;;;;;;20.39;67.23;96976.19;4985911;28;20553;-63
2023/06/19 04:31:08;;;;;;;6.43;3.13;;;;;;;20.43;67.62;96979.13;4990558;28;20038;-63
2023/06/19 04:33:35;;;;;;;3.67;1.90;;;;;;;20.44;67.71;96985.41;4989828;28;20054;-63
2023/06/19 04:36:01;;;;;;;3.10;2.05;;;;;;;20.26;68.94;96988.19;4990076;28;20035;-63
2023/06/19 04:38:28;;;;;;;3.72;1.80;;;;;;;20.35;68.77;96985.44;4989494;28;20430;-63
2023/06/19 04:40:55;;;;;;;4.32;1.80;;;;;;;20.48;68.05;96989.94;4987890;28;20047;-63
2023/06/19 04:43:24;;;;;;;3.05;1.80;;;;;;;20.47;68.26;96987.50;4989629;28;20091;-62
2023/06/19 04:45:51;;;;;;;4.15;1.80;;;;;;;20.52;68.75;97001.09;4988100;28;20468;-62
2023/06/19 04:48:17;;;;;;;4.40;2.20;;;;;;;20.52;68.73;96995.59;4992722;28;20040;-63
2023/06/19 04:50:44;;;;;;;4.45;2.05;;;;;;;20.49;69.47;96982.50;4990403;28;20048;-63
2023/06/19 04:53:11;;;;;;;4.93;2.10;;;;;;;20.31;70.67;96978.97;4987371;28;20069;-63
2023/06/19 04:55:38;;;;;;;3.30;2.00;;;;;;;20.32;71.08;96978.66;4985702;28;20046;-63
2023/06/19 04:58:04;;;;;;;4.03;1.90;;;;;;;20.22;71.56;96988.03;4989586;28;20436;-63
2023/06/19 05:00:31;;;;;;;3.72;2.05;;;;;;;20.39;70.69;96987.19;4990668;28;20120;-62
2023/06/19 05:03:00;;;;;;;3.85;1.95;;;;;;;20.55;69.99;96992.19;4987563;28;20038;-62
2023/06/19 05:05:28;;;;;;;4.70;2.05;;;;;;;20.66;70.12;96987.13;4986404;28;20105;-63
2023/06/19 05:07:54;;;;;;;3.50;1.98;;;;;;;20.76;69.02;96994.25;4990821;28;20564;-63
2023/06/19 05:10:21;;;;;;;3.83;2.05;;;;;;;20.84;68.94;96995.34;4985491;28;20050;-62
2023/06/19 05:12:47;;;;;;;4.05;2.33;;;;;;;20.82;69.39;96995.66;4987398;28;20544;-62
2023/06/19 05:15:14;;;;;;;4.57;2.08;;;;;;;20.84;69.10;96992.59;4992756;28;20039;-62
2023/06/19 05:17:41;;;;;;;4.25;2.17;;;;;;;20.81;69.12;96991.31;4988067;28;20736;-63
2023/06/19 05:20:08;;;;;;;4.93;2.22;;;;;;;20.78;69.51;96990.03;4991537;28;20088;-64
2023/06/19 05:22:36;;;;;;;3.88;1.85;;;;;;;20.91;68.83;97001.19;4993807;28;20705;-64
2023/06/19 05:25:03;;;;;;;4.18;2.28;;;;;;;20.95;68.66;97009.56;4989541;28;20042;-64
2023/06/19 05:27:29;;;;;;;3.60;2.00;;;;;;;20.99;69.11;97005.03;4991658;28;20429;-65
2023/06/19 05:29:56;;;;;;;4.32;2.10;;;;;;;21.04;68.54;97007.59;4991428;28;20043;-64
2023/06/19 05:32:22;;;;;;;5.10;2.28;;;;;;;21.00;69.62;96999.19;4995274;28;20064;-64
2023/06/19 05:34:49;;;;;;;4.25;2.22;;;;;;;21.09;68.86;97009.34;4993653;28;20046;-64
2023/06/19 05:37:16;;;;;;;3.83;2.25;;;;;;;21.16;68.55;97015.16;4992542;28;20056;-64
2023/06/19 05:39:43;;;;;;;4.53;2.08;;;;;;;21.22;68.28;97007.53;4991412;28;20692;-65
2023/06/19 05:42:09;;;;;;;4.38;2.10;;;;;;;21.25;68.66;97018.69;4990711;28;20038;-64
2023/06/19 05:44:36;;;;;;;6.32;3.00;;;;;;;21.35;67.82;97017.50;4993162;28;20038;-64
2023/06/19 05:47:03;;;;;;;4.25;2.10;;;;;;;21.50;67.13;97016.13;4992325;28;20523;-65
2023/06/19 05:49:29;;;;;;;4.05;2.10;;;;;;;21.33;67.64;97018.97;4992311;28;20045;-64
2023/06/19 05:51:58;;;;;;;3.80;2.30;;;;;;;21.39;67.26;97023.97;4988664;28;20039;-63
2023/06/19 05:54:25;;;;;;;5.70;2.20;;;;;;;21.35;67.28;97025.75;4975630;28;20129;-64
2023/06/19 05:56:52;;;;;;;3.65;2.13;;;;;;;21.56;66.72;97019.50;4993495;28;20046;-64
2023/06/19 05:59:19;;;;;;;4.43;2.00;;;;;;;21.50;66.93;97018.88;4991029;28;20031;-65
2023/06/19 06:01:46;;;;;;;3.80;2.45;;;;;;;21.31;67.85;97030.31;4992759;28;20050;-64
2023/06/19 06:04:13;;;;;;;5.82;2.30;;;;;;;21.47;67.52;97025.06;4992884;28;20105;-64
2023/06/19 06:06:40;;;;;;;4.03;2.15;;;;;;;21.39;67.42;97029.47;4988545;28;20093;-64
2023/06/19 06:09:10;;;;;;;4.80;2.30;;;;;;;21.39;67.79;97031.41;4994728;28;20501;-64
2023/06/19 06:11:37;;;;;;;16.30;3.07;;;;;;;21.42;67.70;97033.50;4990304;28;20038;-65
2023/06/19 06:14:04;;;;;;;5.28;2.42;;;;;;;21.36;67.86;97030.13;4991668;28;20275;-64
2023/06/19 06:16:30;;;;;;;6.22;2.60;;;;;;;21.44;68.34;97034.78;4989627;28;20105;-64
2023/06/19 06:18:57;;;;;;;4.68;2.00;;;;;;;21.42;68.05;97044.53;4987540;28;20042;-65
2023/06/19 06:21:23;;;;;;;4.07;2.22;;;;;;;21.47;68.08;97046.25;4994614;28;20184;-65
2023/06/19 06:23:50;;;;;;;3.38;1.98;;;;;;;21.71;67.11;97048.41;4989983;28;20122;-65
2023/06/19 06:26:17;;;;;;;3.22;2.08;;;;;;;21.51;67.53;97058.22;4994739;28;20092;-64
2023/06/19 06:28:43;;;;;;;5.90;2.60;;;;;;;21.64;67.50;97048.13;4992683;28;20501;-65
2023/06/19 06:31:10;;;;;;;3.38;2.03;;;;;;;21.62;67.59;97062.22;4991333;28;20052;-65
2023/06/19 06:33:36;;;;;;;5.18;2.60;;;;;;;21.55;68.08;97070.19;4987181;28;20121;-64
2023/06/19 06:36:03;;;;;;;4.05;2.40;;;;;;;21.57;68.29;97076.19;4988447;28;20073;-64
2023/06/19 06:38:31;;;;;;;4.18;2.15;;;;;;;21.67;67.89;97086.03;4992356;28;20037;-65
2023/06/19 06:40:59;;;;;;;5.78;2.47;;;;;;;21.26;69.86;97080.84;4989513;28;20050;-64
2023/06/19 06:43:25;;;;;;;4.13;2.45;;;;;;;21.07;71.73;97092.25;4991169;28;20069;-64
2023/06/19 06:45:52;;;;;;;4.72;2.45;;;;;;;21.17;71.10;97093.84;4990170;28;20042;-64
2023/06/19 06:48:19;;;;;;;3.92;2.60;;;;;;;21.20;71.07;97092.38;4991898;28;20739;-64
2023/06/19 06:50:45;;;;;;;4.40;2.28;;;;;;;21.09;71.98;97091.94;4987592;28;20065;-64
2023/06/19 06:53:12;;;;;;;4.03;2.42;;;;;;;21.18;72.21;97093.53;4989014;28;20039;-64
2023/06/19 06:55:38;;;;;;;4.40;2.50;;;;;;;21.24;72.19;97096.09;4989903;28;20042;-64
2023/06/19 06:58:05;;;;;;;5.43;2.83;;;;;;;21.31;71.57;97090.91;4990897;28;20042;-64
2023/06/19 07:00:31;;;;;;;5.57;2.50;;;;;;;21.22;72.00;97101.13;4990342;28;20089;-63
2023/06/19 07:02:58;;;;;;;4.93;2.80;;;;;;;21.17;72.87;97099.34;4987158;28;20034;-64
2023/06/19 07:05:25;;;;;;;5.63;2.67;;;;;;;21.21;72.09;97099.50;4989618;28;20547;-63
2023/06/19 07:07:51;;;;;;;5.30;2.47;;;;;;;21.29;72.46;97107.75;4989686;28;20041;-64
2023/06/19 07:10:18;;;;;;;6.75;3.05;;;;;;;21.39;72.91;97103.81;4993573;28;20056;-64
2023/06/19 07:12:48;;;;;;;4.10;2.80;;;;;;;21.37;71.71;97103.34;4990981;28;20050;-64
2023/06/19 07:15:15;;;;;;;4.15;2.75;;;;;;;21.42;71.41;97105.09;4993674;28;20549;-63
2023/06/19 07:17:43;;;;;;;7.75;2.95;;;;;;;21.65;71.32;97113.09;4992049;28;20042;-64
2023/06/19 07:20:10;;;;;;;4.65;2.55;;;;;;;21.68;70.52;97107.72;4991001;28;20078;-64
2023/06/19 07:22:37;;;;;;;6.65;3.35;;;;;;;21.89;69.19;97120.00;4990800;28;20034;-63
2023/06/19 07:25:04;;;;;;;4.30;2.60;;;;;;;22.10;68.91;97120.00;4991475;28;20042;-63
2023/06/19 07:27:31;;;;;;;4.05;2.75;;;;;;;22.00;68.60;97123.94;4988884;28;20061;-63
2023/06/19 07:29:57;;;;;;;4.88;2.50;;;;;;;22.03;68.39;97126.06;4988841;28;20042;-62
2023/06/19 07:32:24;;;;;;;4.57;2.70;;;;;;;22.10;69.06;97122.75;4988524;28;20046;-63
2023/06/19 07:34:51;;;;;;;5.50;2.80;;;;;;;22.10;69.19;97128.28;4986957;28;20035;-63
2023/06/19 07:37:17;;;;;;;5.05;2.58;;;;;;;22.19;68.78;97126.25;4987150;28;20043;-63
2023/06/19 07:39:49;;;;;;;4.35;2.85;;;;;;;22.35;68.11;97125.69;4989535;28;20056;-63
2023/06/19 07:42:18;;;;;;;5.43;2.42;;;;;;;22.60;66.68;97128.59;4990085;28;20053;-63
2023/06/19 07:44:46;;;;;;;4.43;2.40;;;;;;;22.71;66.86;97126.22;4990428;28;20046;-63
2023/06/19 07:47:14;;;;;;;5.25;2.53;;;;;;;22.82;65.54;97119.13;4989114;28;20069;-63
2023/06/19 07:49:40;;;;;;;4.38;2.85;;;;;;;22.97;63.28;97130.69;4986544;28;20049;-63
2023/06/19 07:52:11;;;;;;;5.28;2.53;;;;;;;23.39;63.58;97127.03;4988614;28;20390;-63
2023/06/19 07:54:51;;;;;;;4.30;2.53;;;;;;;23.48;61.83;97133.25;4988354;28;20498;-63
2023/06/19 07:57:18;;;;;;;4.30;2.70;;;;;;;23.35;62.50;97131.63;4992845;28;20065;-62
2023/06/19 07:59:46;;;;;;;5.82;3.05;;;;;;;23.07;62.59;97133.03;4988761;28;20057;-62
2023/06/19 08:02:12;;;;;;;3.47;2.28;;;;;;;22.89;63.63;97129.66;4993190;28;20038;-62
2023/06/19 08:04:39;;;;;;;3.65;2.42;;;;;;;22.95;63.59;97124.69;4988117;28;20046;-63
2023/06/19 08:07:06;;;;;;;4.30;2.55;;;;;;;23.10;64.48;97135.09;4988571;28;20124;-62
2023/06/19 08:09:33;;;;;;;5.13;2.40;;;;;;;23.14;63.69;97135.22;4988167;28;20061;-62
2023/06/19 08:12:01;;;;;;;4.05;2.72;;;;;;;23.18;63.49;97130.63;4982615;28;20521;-63
2023/06/19 08:14:28;;;;;;;4.10;2.53;;;;;;;23.36;62.39;97125.75;4990283;28;20046;-63
2023/06/19 08:16:54;;;;;;;3.53;2.30;;;;;;;23.72;61.39;97131.66;4988624;28;20121;-62
2023/06/19 08:19:21;;;;;;;4.18;2.20;;;;;;;23.94;59.99;97131.53;4992644;28;20084;-63
2023/06/19 08:21:48;;;;;;;4.03;2.30;;;;;;;23.89;58.74;97130.63;4985903;28;20412;-63
2023/06/19 08:24:14;;;;;;;5.60;2.90;;;;;;;23.95;58.37;97133.16;4988108;28;20042;-62
2023/06/19 08:26:41;;;;;;;5.57;2.60;;;;;;;24.06;58.20;97133.50;4988087;28;20579;-62
2023/06/19 08:29:07;;;;;;;6.60;2.38;;;;;;;24.22;59.33;97128.09;4991697;28;20401;-63
2023/06/19 08:31:34;;;;;;;4.20;2.70;;;;;;;24.45;58.73;97124.78;4988374;28;20696;-63
2023/06/19 08:34:04;;;;;;;4.20;2.70;;;;;;;24.50;57.84;97119.00;4990067;28;20060;-62
2023/06/19 08:36:30;;;;;;;4.15;2.80;;;;;;;24.62;55.83;97115.41;4990000;28;20046;-63
2023/06/19 08:38:57;;;;;;;3.95;2.50;;;;;;;24.78;56.30;97113.50;4988162;28;20046;-62
2023/06/19 08:41:23;;;;;;;4.70;2.40;;;;;;;25.03;56.01;97113.41;4991774;28;20417;-62
2023/06/19 08:43:50;;;;;;;4.00;2.80;;;;;;;25.23;54.81;97121.84;4989644;28;20046;-63
2023/06/19 08:46:18;;;;;;;6.07;2.40;;;;;;;25.22;54.22;97124.97;4987981;28;20042;-62
2023/06/19 08:48:48;;;;;;;4.50;2.80;;;;;;;25.00;55.35;97118.84;4970710;28;20042;-63
2023/06/19 08:51:14;;;;;;;4.75;2.92;;;;;;;25.01;55.88;97112.97;4989777;28;20133;-62
2023/06/19 08:53:53;;;;;;;4.18;2.70;;;;;;;25.28;55.23;97120.78;4991919;28;20038;-62
2023/06/19 08:56:20;;;;;;;4.20;2.80;;;;;;;25.15;55.31;97123.63;4989469;28;20050;-63
2023/06/19 08:58:46;;;;;;;4.10;2.55;;;;;;;25.15;54.23;97123.63;4990202;28;20632;-63
2023/06/19 09:01:18;;;;;;;6.57;3.03;;;;;;;25.13;54.73;97122.38;4972119;28;20038;-63
2023/06/19 09:03:46;;;;;;;5.03;2.55;;;;;;;25.03;54.52;97121.69;4992697;28;20704;-63
2023/06/19 09:06:16;;;;;;;4.95;3.10;;;;;;;25.17;54.69;97131.59;4991627;28;20069;-62
2023/06/19 09:08:43;;;;;;;5.43;2.63;;;;;;;25.10;54.41;97123.06;4991535;28;20038;-63
2023/06/19 09:11:11;;;;;;;4.65;2.80;;;;;;;25.13;53.86;97125.16;4989413;28;20518;-63
2023/06/19 09:13:38;;;;;;;5.65;2.55;;;;;;;25.27;54.74;97119.97;4990640;28;20045;-63
2023/06/19 09:16:06;;;;;;;6.22;3.15;;;;;;;25.14;54.39;97124.75;4994075;28;20065;-63
2023/06/19 09:18:47;;;;;;;4.15;2.60;;;;;;;25.19;54.63;97118.16;4990129;28;20121;-62
2023/06/19 09:21:18;;;;;;;4.80;2.72;;;;;;;25.34;53.40;97119.34;4978967;28;20089;-63
2023/06/19 09:23:46;;;;;;;4.13;2.80;;;;;;;25.50;51.88;97115.78;4991009;28;20689;-63
2023/06/19 09:26:19;;;;;;;5.85;2.53;;;;;;;25.67;52.72;97114.63;4975490;28;20042;-62
2023/06/19 09:28:46;;;;;;;5.32;2.80;;;;;;;25.67;51.91;97117.41;4991500;28;20055;-62
2023/06/19 09:31:13;;;;;;;6.32;2.58;;;;;;;25.74;53.06;97117.59;4992839;28;20061;-64
2023/06/19 09:33:40;;;;;;;5.47;2.55;;;;;;;25.75;53.66;97115.63;4990585;28;20638;-63
2023/06/19 09:36:07;;;;;;;5.30;2.80;;;;;;;25.43;53.71;97105.31;4989919;28;20050;-64
2023/06/19 09:38:38;;;;;;;5.90;2.70;;;;;;;25.35;54.07;97118.19;4994006;28;20133;-63
2023/06/19 09:41:07;;;;;;;5.97;2.92;;;;;;;25.42;53.45;97114.78;4971533;28;20138;-63
2023/06/19 09:43:40;;;;;;;7.03;2.75;;;;;;;25.50;53.03;97113.81;4991741;28;20267;-64
2023/06/19 09:46:07;;;;;;;5.93;2.47;;;;;;;25.53;53.54;97109.50;4989578;28;20242;-64
2023/06/19 09:48:35;;;;;;;3.67;2.22;;;;;;;25.66;53.12;97111.06;4993890;28;20509;-64
2023/06/19 09:51:28;;;;;;;4.90;2.50;;;;;;;25.82;52.59;97110.25;4992858;28;20053;-64
2023/06/19 09:53:57;;;;;;;4.65;2.33;;;;;;;25.87;53.35;97115.50;4992287;28;20041;-64
2023/06/19 09:56:25;;;;;;;4.85;2.90;;;;;;;25.55;53.81;97119.09;4992690;28;20100;-64
2023/06/19 09:58:54;;;;;;;4.07;2.33;;;;;;;25.68;54.04;97108.72;4992961;28;20041;-64
2023/06/19 10:01:22;;;;;;;5.25;3.00;;;;;;;25.83;52.59;97109.88;4992455;28;20073;-64
2023/06/19 10:03:49;;;;;;;6.55;2.70;;;;;;;25.86;53.45;97108.34;4990814;28;20030;-64
2023/06/19 10:06:16;;;;;;;4.18;2.63;;;;;;;25.79;52.34;97108.22;4993481;28;20042;-64
2023/06/19 10:08:44;;;;;;;4.13;2.60;;;;;;;25.70;53.80;97108.38;4988374;28;20042;-63
2023/06/19 10:11:12;;;;;;;4.45;3.05;;;;;;;25.93;54.02;97105.75;4992059;28;20509;-62
2023/06/19 10:13:42;;;;;;;5.07;3.20;;;;;;;25.93;52.26;97116.03;4990097;28;20038;-62
2023/06/19 10:16:20;;;;;;;5.67;3.10;;;;;;;25.96;52.14;97109.78;4989639;28;20065;-63
2023/06/19 10:18:48;;;;;;;4.38;3.28;;;;;;;26.00;53.52;97107.06;4990467;28;20281;-63
2023/06/19 10:21:19;;;;;;;4.25;2.72;;;;;;;26.20;52.05;97107.94;4993917;28;20529;-61
2023/06/19 10:24:01;;;;;;;5.00;2.60;;;;;;;26.08;53.25;97117.16;4986087;28;20100;-62
2023/06/19 10:26:35;;;;;;;5.15;2.92;;;;;;;26.27;52.32;97113.66;4988473;28;20034;-62
2023/06/19 10:29:17;;;;;;;4.30;2.85;;;;;;;26.27;52.39;97099.00;4988997;28;20568;-64
2023/06/19 10:31:45;;;;;;;5.47;3.20;;;;;;;26.55;51.58;97107.13;4992038;28;20069;-64
2023/06/19 10:34:12;;;;;;;4.25;2.78;;;;;;;26.35;51.76;97100.75;4991127;28;20039;-64
2023/06/19 10:36:38;;;;;;;4.82;3.40;;;;;;;26.30;51.97;97104.63;4989753;28;20533;-64
2023/06/19 10:39:05;;;;;;;3.83;2.75;;;;;;;25.95;52.96;97099.84;4971224;28;20101;-63
2023/06/19 10:41:32;;;;;;;5.18;3.25;;;;;;;26.09;52.61;97100.16;4989918;28;20513;-61
2023/06/19 10:44:05;;;;;;;5.80;3.30;;;;;;;26.33;51.22;97100.31;4991557;28;20105;-62
2023/06/19 10:46:35;;;;;;;5.10;2.90;;;;;;;26.21;49.97;97098.44;4990583;28;20073;-63
2023/06/19 10:49:04;;;;;;;4.80;2.95;;;;;;;26.27;50.33;97093.44;4986759;28;20038;-62
2023/06/19 10:51:34;;;;;;;3.88;2.40;;;;;;;26.47;49.27;97091.47;4988339;28;20034;-63
2023/06/19 10:54:01;;;;;;;4.43;2.60;;;;;;;26.87;49.42;97084.72;4987690;28;20494;-63
2023/06/19 10:56:27;;;;;;;4.38;2.67;;;;;;;27.16;48.12;97086.47;4989621;28;20041;-64
2023/06/19 10:59:02;;;;;;;3.95;2.58;;;;;;;26.97;47.94;97068.66;4989695;28;20046;-63
2023/06/19 11:01:36;;;;;;;4.15;2.92;;;;;;;26.83;49.30;97069.19;4988688;28;20555;-64
2023/06/19 11:04:08;;;;;;;3.95;2.67;;;;;;;27.13;47.66;97074.91;4989461;28;20066;-64
2023/06/19 11:06:35;;;;;;;4.30;2.92;;;;;;;27.11;47.52;97066.16;4990328;28;20049;-64
2023/06/19 11:09:06;;;;;;;4.07;2.58;;;;;;;27.00;47.10;97079.84;4986288;28;20112;-63
2023/06/19 11:11:40;;;;;;;;;;;;;;;26.66;47.79;97074.03;4988446;28;20065;-63
2023/06/19 11:14:08;;;;;;;4.60;2.58;;;;;;;26.96;47.38;97072.59;4986417;28;20409;-64
2023/06/19 11:16:37;;;;;;;4.50;2.88;;;;;;;27.21;47.26;97075.03;4987436;28;20120;-63
2023/06/19 11:19:06;;;;;;;3.92;2.72;;;;;;;27.39;46.23;97069.78;4984197;28;20288;-64
2023/06/19 11:21:38;;;;;;;5.97;2.80;;;;;;;27.68;46.75;97073.06;4989869;28;20041;-64
2023/06/19 11:24:10;;;;;;;4.15;2.90;;;;;;;27.50;45.56;97067.97;4985833;28;20034;-64
2023/06/19 11:26:43;;;;;;;3.70;2.60;;;;;;;27.69;45.54;97068.28;4969261;28;20314;-63
2023/06/19 11:29:33;;;;;;;4.18;2.40;;;;;;;27.92;44.76;97065.47;4989312;28;20042;-64
2023/06/19 11:32:08;;;;;;;4.75;2.90;;;;;;;28.07;44.89;97063.69;4982837;28;20150;-62
2023/06/19 11:34:39;;;;;;;4.70;2.63;;;;;;;27.90;45.03;97070.59;4990484;28;20105;-62
2023/06/19 11:37:17;;;;;;;3.70;2.38;;;;;;;28.11;44.23;97063.75;4989078;28;20085;-63